Inverness, Montana
Current Conditions -  °F | °C
As of 12:53 AM on Thursday 18 Dec 2014 (Local Time) from KHVR Reporting Station
Moderate Fog Moderate Fog  
Wind Chill: 23°   Ceiling: 300
Heat Index: 23°   Visibility: 0.5mi
Dew Point: 22°   Wind: 0mph
Humidity: 96%   Direction: NA
Pressure: 29.92"   Gusts: NA
Location:  48.56°N, 110.69°W
Report Text: KHVR 180753Z AUTO 00000KT 1/2SM FZFG VV003 M05/M06 A2992 RMK AO2 SLP167 I1001 T10501056
Loading
Personal Weather Stations






























Interactive Weather Map New forecast layout! Learn more

10-Day Weather Forecast

Advertisements
Track Severe Weather on mobile